createdAt,value
2018-09-13T00:00:06.832Z,1.50
2018-09-13T00:02:36.527Z,1.33
2018-09-13T00:05:06.353Z,1.87
2018-09-13T00:07:36.046Z,1.60
2018-09-13T00:10:05.719Z,1.60
2018-09-13T00:12:35.368Z,1.30
2018-09-13T00:15:05.697Z,1.30
2018-09-13T00:17:35.413Z,1.03
2018-09-13T00:20:05.646Z,1.30
2018-09-13T00:22:35.312Z,1.10
2018-09-13T00:25:05.070Z,1.27
2018-09-13T00:27:34.732Z,1.10
2018-09-13T00:30:04.449Z,1.30
2018-09-13T00:32:34.054Z,1.20
2018-09-13T00:35:03.678Z,1.17
2018-09-13T00:37:33.303Z,1.30
2018-09-13T00:40:02.887Z,1.60
2018-09-13T00:42:32.488Z,1.53
2018-09-13T00:45:02.129Z,1.50
2018-09-13T00:47:31.815Z,1.40
2018-09-13T00:50:01.449Z,2.00
2018-09-13T00:52:31.074Z,1.50
2018-09-13T00:55:00.797Z,1.50
2018-09-13T00:57:30.427Z,1.33
2018-09-13T01:00:00.069Z,1.80
2018-09-13T01:02:29.756Z,1.80
2018-09-13T01:04:59.749Z,1.63
2018-09-13T01:07:29.459Z,1.60
2018-09-13T01:09:59.087Z,1.13
2018-09-13T01:12:29.575Z,1.60
2018-09-13T01:14:59.237Z,1.20
2018-09-13T01:17:28.968Z,0.97
2018-09-13T01:19:58.630Z,1.20
2018-09-13T01:22:28.285Z,1.50
2018-09-13T01:24:57.977Z,1.80
2018-09-13T01:27:28.478Z,1.53
2018-09-13T01:29:58.671Z,1.37
2018-09-13T01:32:28.383Z,2.30
2018-09-13T01:34:58.035Z,2.10
2018-09-13T01:37:27.656Z,2.50
2018-09-13T01:39:57.282Z,1.90
2018-09-13T01:42:26.927Z,1.50
2018-09-13T01:44:57.501Z,1.63
2018-09-13T01:47:27.156Z,1.77
2018-09-13T01:49:56.824Z,1.50
2018-09-13T01:52:26.473Z,1.50
2018-09-13T01:54:56.161Z,1.30
2018-09-13T01:57:25.771Z,1.87
2018-09-13T01:59:55.414Z,1.60
2018-09-13T02:02:25.070Z,1.83
2018-09-13T02:04:54.717Z,1.87
2018-09-13T02:07:24.340Z,2.20
2018-09-13T02:09:53.970Z,2.17
2018-09-13T02:12:23.593Z,1.50
2018-09-13T02:14:53.391Z,2.27
2018-09-13T02:17:23.058Z,2.80
2018-09-13T02:19:52.703Z,2.73
2018-09-13T02:22:22.360Z,2.43
2018-09-13T02:24:51.964Z,2.03
2018-09-13T02:27:21.627Z,2.40
2018-09-13T02:29:51.274Z,2.70
2018-09-13T02:32:20.885Z,2.90
2018-09-13T02:34:50.620Z,2.70
2018-09-13T02:37:20.263Z,1.93
2018-09-13T02:39:49.884Z,3.23
2018-09-13T02:42:19.593Z,2.80
2018-09-13T02:44:49.214Z,2.30
2018-09-13T02:47:19.599Z,2.70
2018-09-13T02:49:49.243Z,2.07
2018-09-13T02:52:18.859Z,1.60
2018-09-13T02:54:48.471Z,1.20
2018-09-13T02:57:18.128Z,1.23
2018-09-13T02:59:47.782Z,1.20
2018-09-13T03:02:17.392Z,1.13
2018-09-13T03:04:47.078Z,1.57
2018-09-13T03:07:16.735Z,1.37
2018-09-13T03:09:46.395Z,5.07
2018-09-13T03:12:16.027Z,2.90
2018-09-13T03:14:45.739Z,2.03
2018-09-13T03:17:15.400Z,2.33
2018-09-13T03:19:45.048Z,1.90
2018-09-13T03:22:14.663Z,2.07
2018-09-13T03:24:44.334Z,3.00
2018-09-13T03:27:13.977Z,3.27
2018-09-13T03:29:43.702Z,3.03
2018-09-13T03:32:13.385Z,2.47
2018-09-13T03:34:43.020Z,3.43
2018-09-13T03:37:12.672Z,10.27
2018-09-13T03:39:42.314Z,10.17
2018-09-13T03:42:11.944Z,8.60
2018-09-13T03:44:41.593Z,5.40
2018-09-13T03:47:11.225Z,4.00
2018-09-13T03:49:40.907Z,2.50
2018-09-13T03:52:10.566Z,2.13
2018-09-13T03:54:40.202Z,2.00
2018-09-13T03:57:10.909Z,2.43
2018-09-13T03:59:40.580Z,1.70
2018-09-13T04:02:10.253Z,1.87
2018-09-13T04:04:39.892Z,1.90
2018-09-13T04:07:09.547Z,1.77
2018-09-13T04:09:39.183Z,2.07
2018-09-13T04:12:08.881Z,2.90
2018-09-13T04:14:39.301Z,2.40
2018-09-13T04:17:09.042Z,2.23
2018-09-13T04:19:43.024Z,2.13
2018-09-13T04:22:13.577Z,1.73
2018-09-13T04:24:43.982Z,1.90
2018-09-13T04:27:14.019Z,2.20
2018-09-13T04:29:44.072Z,2.23
2018-09-13T04:32:13.825Z,2.23
2018-09-13T04:34:43.491Z,1.83
2018-09-13T04:37:13.162Z,2.00
2018-09-13T04:39:42.803Z,2.03
2018-09-13T04:42:12.447Z,2.43
2018-09-13T04:44:42.100Z,2.90
2018-09-13T04:47:11.766Z,2.60
2018-09-13T04:49:41.563Z,2.57
2018-09-13T04:52:11.380Z,2.03
2018-09-13T04:54:41.084Z,2.00
2018-09-13T04:57:10.770Z,1.77
2018-09-13T04:59:40.790Z,2.53
2018-09-13T05:02:11.464Z,1.80
2018-09-13T05:04:41.263Z,2.80
2018-09-13T05:07:11.063Z,2.10
2018-09-13T05:09:40.915Z,2.20
2018-09-13T05:12:10.652Z,2.40
2018-09-13T05:14:40.404Z,2.40
2018-09-13T05:17:10.119Z,2.77
2018-09-13T05:19:39.811Z,2.53
2018-09-13T05:22:09.495Z,1.70
2018-09-13T05:24:39.242Z,1.70
2018-09-13T05:27:09.110Z,2.90
2018-09-13T05:29:38.853Z,2.40
2018-09-13T05:32:08.951Z,2.37
2018-09-13T05:34:38.681Z,1.83
2018-09-13T05:37:08.481Z,1.67
2018-09-13T05:39:38.184Z,1.70
2018-09-13T05:42:07.960Z,1.77
2018-09-13T05:44:37.842Z,1.97
2018-09-13T05:47:07.636Z,2.00
2018-09-13T05:49:37.399Z,2.00
2018-09-13T05:52:07.248Z,2.13
2018-09-13T05:54:36.957Z,1.83
2018-09-13T05:57:06.743Z,1.60
2018-09-13T05:59:36.431Z,1.57
2018-09-13T06:02:06.213Z,1.73
2018-09-13T06:04:36.145Z,1.77
2018-09-13T06:07:06.027Z,1.60
2018-09-13T06:09:35.971Z,1.90
2018-09-13T06:12:05.816Z,1.70
2018-09-13T06:14:35.554Z,1.97
2018-09-13T06:17:05.366Z,2.30
2018-09-13T06:19:35.072Z,2.20
2018-09-13T06:22:04.939Z,2.20
2018-09-13T06:24:34.650Z,2.20
2018-09-13T06:27:04.505Z,1.50
2018-09-13T06:29:34.412Z,1.83
2018-09-13T06:32:04.065Z,1.70
2018-09-13T06:34:33.753Z,2.30
2018-09-13T06:37:03.627Z,2.37
2018-09-13T06:39:33.412Z,1.70
2018-09-13T06:42:03.288Z,1.70
2018-09-13T06:44:33.296Z,1.80
2018-09-13T06:47:03.049Z,1.73
2018-09-13T06:49:32.789Z,1.63
2018-09-13T06:52:02.541Z,2.10
2018-09-13T06:54:32.419Z,2.23
2018-09-13T06:57:02.143Z,2.07
2018-09-13T06:59:32.195Z,2.20
2018-09-13T07:02:02.001Z,2.30
2018-09-13T07:04:31.762Z,1.97
2018-09-13T07:07:01.514Z,1.83
2018-09-13T07:09:31.250Z,1.97
2018-09-13T07:12:00.956Z,2.37
2018-09-13T07:14:30.680Z,2.30
2018-09-13T07:17:00.441Z,2.90
2018-09-13T07:19:30.231Z,2.37
2018-09-13T07:22:00.945Z,2.33
2018-09-13T07:24:31.059Z,2.90
2018-09-13T07:27:00.820Z,2.37
2018-09-13T07:29:30.707Z,2.40
2018-09-13T07:32:00.543Z,1.83
2018-09-13T07:34:30.328Z,2.00
2018-09-13T07:37:00.319Z,2.00
2018-09-13T07:39:30.177Z,2.40
2018-09-13T07:41:59.915Z,2.37
2018-09-13T07:44:29.935Z,1.73
2018-09-13T07:46:59.847Z,1.80
2018-09-13T07:49:29.788Z,2.30
2018-09-13T07:52:00.170Z,2.17
2018-09-13T07:54:29.862Z,2.33
2018-09-13T07:56:59.639Z,2.03
2018-09-13T07:59:29.656Z,2.67
2018-09-13T08:01:59.442Z,2.33
2018-09-13T08:04:29.164Z,2.60
2018-09-13T08:06:59.136Z,2.50
2018-09-13T08:09:29.294Z,2.03
2018-09-13T08:11:59.390Z,3.43
2018-09-13T08:14:29.050Z,2.33
2018-09-13T08:16:58.859Z,1.73
2018-09-13T08:19:28.574Z,2.37
2018-09-13T08:21:58.387Z,1.90
2018-09-13T08:24:28.172Z,2.17
2018-09-13T08:26:57.954Z,1.53
2018-09-13T08:29:27.731Z,1.87
2018-09-13T08:31:57.516Z,2.20
2018-09-13T08:34:27.221Z,1.77
2018-09-13T08:36:56.984Z,2.43
2018-09-13T08:39:26.690Z,1.80
2018-09-13T08:41:56.393Z,1.70
2018-09-13T08:44:26.290Z,2.07
2018-09-13T08:46:56.241Z,1.83
2018-09-13T08:49:26.148Z,1.93
2018-09-13T08:51:55.893Z,1.83
2018-09-13T08:54:25.702Z,1.73
2018-09-13T08:56:55.600Z,2.33
2018-09-13T08:59:25.363Z,1.70
2018-09-13T09:01:55.093Z,2.17
2018-09-13T09:04:24.808Z,2.63
2018-09-13T09:06:54.613Z,2.17
2018-09-13T09:09:24.350Z,2.40
2018-09-13T09:11:54.110Z,1.77
2018-09-13T09:14:24.159Z,1.83
2018-09-13T09:16:53.974Z,2.17
2018-09-13T09:19:24.088Z,2.30
2018-09-13T09:21:53.930Z,2.40
2018-09-13T09:24:23.873Z,2.03
2018-09-13T09:26:53.706Z,1.80
2018-09-13T09:29:23.593Z,2.10
2018-09-13T09:31:53.268Z,1.90
2018-09-13T09:34:23.033Z,1.50
2018-09-13T09:36:53.891Z,2.10
2018-09-13T09:39:23.750Z,2.27
2018-09-13T09:41:53.627Z,1.63
2018-09-13T09:44:23.695Z,1.53
2018-09-13T09:46:53.465Z,1.60
2018-09-13T09:49:23.187Z,2.00
2018-09-13T09:51:52.926Z,1.50
2018-09-13T09:54:23.131Z,1.47
2018-09-13T09:56:53.056Z,1.73
2018-09-13T09:59:22.806Z,1.93
2018-09-13T10:01:57.862Z,1.40
2018-09-13T10:04:27.648Z,1.43
2018-09-13T10:06:58.334Z,1.30
2018-09-13T10:09:28.110Z,2.00
2018-09-13T10:11:57.855Z,1.57
2018-09-13T10:14:27.745Z,1.80
2018-09-13T10:17:05.642Z,1.57
2018-09-13T10:19:40.519Z,1.60
2018-09-13T10:22:15.630Z,1.87
2018-09-13T10:24:50.540Z,1.77
2018-09-13T10:27:25.533Z,2.10
2018-09-13T10:30:00.450Z,2.00
2018-09-13T10:32:35.432Z,2.10
2018-09-13T10:35:10.337Z,1.80
2018-09-13T10:37:50.172Z,1.83
2018-09-13T10:40:29.900Z,1.80
2018-09-13T10:43:07.510Z,1.67
2018-09-13T10:45:49.800Z,1.80
2018-09-13T10:48:27.576Z,1.87
2018-09-13T10:51:03.772Z,1.50
2018-09-13T10:53:40.771Z,1.60
2018-09-13T10:56:14.343Z,1.50
2018-09-13T10:58:50.455Z,1.40
2018-09-13T11:01:26.258Z,1.70
2018-09-13T11:04:01.549Z,1.70
2018-09-13T11:06:32.396Z,1.53
2018-09-13T11:09:04.254Z,1.70
2018-09-13T11:11:35.972Z,1.40
2018-09-13T11:14:13.914Z,1.70
2018-09-13T11:16:46.492Z,1.40
2018-09-13T11:19:17.689Z,1.50
2018-09-13T11:21:47.962Z,1.40
2018-09-13T11:24:22.452Z,1.70
2018-09-13T11:26:53.514Z,1.70
2018-09-13T11:29:23.925Z,1.37
2018-09-13T11:31:54.893Z,1.90
2018-09-13T11:34:26.524Z,1.83
2018-09-13T11:36:57.666Z,1.67
2018-09-13T11:39:29.426Z,1.70
2018-09-13T11:42:01.145Z,1.70
2018-09-13T11:44:32.236Z,1.63
2018-09-13T11:47:03.410Z,1.63
2018-09-13T11:49:33.740Z,1.63
2018-09-13T11:52:04.193Z,1.60
2018-09-13T11:54:34.787Z,1.50
2018-09-13T11:57:06.361Z,1.77
2018-09-13T11:59:37.092Z,1.93
2018-09-13T12:02:08.449Z,1.93
2018-09-13T12:04:40.249Z,1.30
2018-09-13T12:07:12.832Z,1.40
2018-09-13T12:09:43.188Z,1.50
2018-09-13T12:12:13.711Z,1.73
2018-09-13T12:14:43.815Z,2.00
2018-09-13T12:17:14.053Z,1.67
2018-09-13T12:19:44.436Z,1.70
2018-09-13T12:22:15.064Z,1.50
2018-09-13T12:24:45.212Z,1.70
2018-09-13T12:27:15.855Z,1.50
2018-09-13T12:29:46.288Z,1.50
2018-09-13T12:32:16.555Z,1.47
2018-09-13T12:34:46.829Z,1.70
2018-09-13T12:37:17.186Z,1.53
2018-09-13T12:39:47.720Z,1.30
2018-09-13T12:42:18.519Z,1.40
2018-09-13T12:44:48.720Z,1.20
2018-09-13T12:47:19.843Z,1.10
2018-09-13T12:49:50.288Z,1.50
2018-09-13T12:52:20.599Z,1.30
2018-09-13T12:54:50.823Z,1.10
2018-09-13T12:57:21.311Z,1.10
2018-09-13T12:59:51.630Z,1.40
2018-09-13T13:02:22.814Z,1.30
2018-09-13T13:04:53.270Z,1.87
2018-09-13T13:07:24.093Z,1.60
2018-09-13T13:09:54.000Z,1.37
2018-09-13T13:12:23.979Z,1.50
2018-09-13T13:14:54.557Z,1.40
2018-09-13T13:17:24.659Z,1.77
2018-09-13T13:19:55.624Z,1.45
2018-09-13T13:22:25.650Z,1.63
2018-09-13T13:24:56.511Z,1.53
2018-09-13T13:27:26.665Z,1.40
2018-09-13T13:29:56.837Z,1.10
2018-09-13T13:32:26.843Z,1.57
2018-09-13T13:34:56.819Z,1.67
2018-09-13T13:37:26.791Z,1.62
2018-09-13T13:39:57.436Z,1.33
2018-09-13T13:42:27.230Z,1.50
2018-09-13T13:44:57.039Z,1.07
2018-09-13T13:47:27.119Z,1.30
2018-09-13T13:49:56.889Z,1.52
2018-09-13T13:52:27.986Z,1.50
2018-09-13T13:54:57.765Z,1.42
2018-09-13T13:57:27.523Z,1.77
2018-09-13T13:59:57.250Z,1.40
2018-09-13T14:02:26.955Z,1.05
2018-09-13T14:04:56.716Z,1.70
2018-09-13T14:07:26.383Z,1.50
2018-09-13T14:09:56.717Z,1.62
2018-09-13T14:12:26.447Z,1.50
2018-09-13T14:14:56.857Z,1.60
2018-09-13T14:17:26.633Z,1.37
2018-09-13T14:19:56.396Z,1.45
2018-09-13T14:22:26.164Z,1.22
2018-09-13T14:24:55.886Z,2.05
2018-09-13T14:27:25.876Z,1.60
2018-09-13T14:29:55.689Z,1.50
2018-09-13T14:32:25.328Z,1.40
2018-09-13T14:34:54.931Z,1.40
2018-09-13T14:37:24.909Z,1.55
2018-09-13T14:39:54.608Z,1.30
2018-09-13T14:42:24.486Z,1.35
2018-09-13T14:44:54.293Z,1.80
2018-09-13T14:47:24.005Z,1.50
2018-09-13T14:49:53.800Z,1.32
2018-09-13T14:52:23.681Z,1.55
2018-09-13T14:54:53.469Z,1.30
2018-09-13T14:57:23.262Z,1.40
2018-09-13T14:59:52.987Z,1.47
2018-09-13T15:02:22.725Z,1.20
2018-09-13T15:04:52.546Z,1.20
2018-09-13T15:07:22.724Z,1.30
2018-09-13T15:09:52.908Z,1.35
2018-09-13T15:12:22.705Z,1.55
2018-09-13T15:14:52.541Z,1.52
2018-09-13T15:17:22.497Z,1.27
2018-09-13T15:19:52.303Z,1.10
2018-09-13T15:22:22.070Z,1.37
2018-09-13T15:24:51.978Z,1.20
2018-09-13T15:27:22.306Z,1.57
2018-09-13T15:29:52.237Z,1.42
2018-09-13T15:32:22.119Z,1.30
2018-09-13T15:34:52.888Z,1.00
2018-09-13T15:37:23.450Z,1.20
2018-09-13T15:39:53.779Z,1.00
2018-09-13T15:42:24.194Z,1.12
2018-09-13T15:44:54.368Z,1.40
2018-09-13T15:47:24.315Z,1.07
2018-09-13T15:49:54.860Z,1.30
2018-09-13T15:52:24.860Z,1.40
2018-09-13T15:54:54.616Z,1.50
2018-09-13T15:57:24.345Z,1.50
2018-09-13T15:59:54.135Z,1.70
2018-09-13T16:02:24.004Z,1.62
2018-09-13T16:04:53.790Z,1.32
2018-09-13T16:07:23.547Z,1.32
2018-09-13T16:09:53.234Z,1.77
2018-09-13T16:12:23.016Z,1.10
2018-09-13T16:14:52.808Z,1.50
2018-09-13T16:17:22.524Z,1.55
2018-09-13T16:19:52.789Z,1.62
2018-09-13T16:22:22.756Z,1.70
2018-09-13T16:24:52.447Z,1.72
2018-09-13T16:27:22.193Z,2.12
2018-09-13T16:29:52.453Z,1.90
2018-09-13T16:32:23.579Z,1.80
2018-09-13T16:34:54.246Z,1.32
2018-09-13T16:37:29.418Z,1.75
2018-09-13T16:40:04.609Z,1.60
2018-09-13T16:42:43.913Z,1.47
2018-09-13T16:45:14.098Z,1.47
2018-09-13T16:47:49.552Z,1.10
2018-09-13T16:50:20.560Z,1.37
2018-09-13T16:52:50.622Z,1.30
2018-09-13T16:55:20.912Z,1.20
2018-09-13T16:57:51.003Z,1.13
2018-09-13T17:00:22.285Z,1.00
2018-09-13T17:02:52.135Z,0.97
2018-09-13T17:05:22.879Z,1.10
2018-09-13T17:07:53.148Z,1.23
2018-09-13T17:10:23.439Z,1.30
2018-09-13T17:12:53.714Z,1.23
2018-09-13T17:15:24.226Z,1.33
2018-09-13T17:17:54.453Z,2.17
2018-09-13T17:20:26.379Z,1.70
2018-09-13T17:22:56.409Z,1.33
2018-09-13T17:25:27.311Z,1.43
2018-09-13T17:27:57.260Z,1.20
2018-09-13T17:30:27.168Z,1.10
2018-09-13T17:32:57.501Z,1.33
2018-09-13T17:35:28.299Z,1.03
2018-09-13T17:37:58.166Z,1.07
2018-09-13T17:40:28.550Z,1.50
2018-09-13T17:43:00.840Z,1.50
2018-09-13T17:45:31.081Z,1.33
2018-09-13T17:48:01.633Z,1.50
2018-09-13T17:50:31.965Z,1.20
2018-09-13T17:53:02.155Z,1.13
2018-09-13T17:55:35.273Z,1.27
2018-09-13T17:58:06.216Z,1.43
2018-09-13T18:00:36.419Z,1.33
2018-09-13T18:03:06.874Z,1.00
2018-09-13T18:05:36.699Z,1.07
2018-09-13T18:08:06.451Z,1.30
2018-09-13T18:10:36.256Z,2.10
2018-09-13T18:13:06.213Z,1.53
2018-09-13T18:15:35.988Z,1.93
2018-09-13T18:18:06.319Z,2.40
2018-09-13T18:20:36.778Z,4.10
2018-09-13T18:23:06.834Z,4.60
2018-09-13T18:25:36.669Z,4.70
2018-09-13T18:28:06.408Z,5.40
2018-09-13T18:30:36.217Z,6.47
2018-09-13T18:33:06.068Z,4.87
2018-09-13T18:35:35.832Z,11.80
2018-09-13T18:38:05.664Z,14.27
2018-09-13T18:40:35.501Z,7.80
2018-09-13T18:43:05.667Z,5.93
2018-09-13T18:45:35.582Z,5.33
2018-09-13T18:48:05.578Z,4.00
2018-09-13T18:50:35.724Z,2.87
2018-09-13T18:53:05.482Z,3.00
2018-09-13T18:55:35.395Z,2.80
2018-09-13T18:58:05.198Z,2.87
2018-09-13T19:00:35.120Z,2.30
2018-09-13T19:03:05.115Z,2.33
2018-09-13T19:05:35.008Z,2.00
2018-09-13T19:08:04.908Z,1.77
2018-09-13T19:10:35.407Z,2.00
2018-09-13T19:13:05.294Z,1.73
2018-09-13T19:15:35.083Z,1.90
2018-09-13T19:18:05.628Z,1.60
2018-09-13T19:20:36.211Z,1.70
2018-09-13T19:23:07.453Z,1.80
2018-09-13T19:25:38.182Z,1.50
2018-09-13T19:28:08.192Z,1.80
2018-09-13T19:30:38.156Z,1.87
2018-09-13T19:33:08.098Z,2.23
2018-09-13T19:35:38.619Z,2.37
2018-09-13T19:38:08.441Z,2.80
2018-09-13T19:40:38.881Z,2.30
2018-09-13T19:43:08.821Z,2.60
2018-09-13T19:45:38.902Z,2.43
2018-09-13T19:48:08.795Z,2.20
2018-09-13T19:50:38.930Z,2.10
2018-09-13T19:53:09.194Z,1.90
2018-09-13T19:55:40.390Z,2.17
2018-09-13T19:58:10.203Z,2.30
2018-09-13T20:00:40.010Z,2.30
2018-09-13T20:03:09.777Z,2.40
2018-09-13T20:05:39.913Z,2.20
2018-09-13T20:08:09.688Z,2.70
2018-09-13T20:10:39.412Z,2.83
2018-09-13T20:13:09.238Z,2.80
2018-09-13T20:15:39.022Z,3.30
2018-09-13T20:18:08.757Z,3.40
2018-09-13T20:20:38.594Z,3.93
2018-09-13T20:23:08.688Z,3.20
2018-09-13T20:25:38.795Z,3.40
2018-09-13T20:28:08.489Z,3.67
2018-09-13T20:30:38.329Z,3.53
2018-09-13T20:33:08.173Z,3.30
2018-09-13T20:35:38.029Z,3.43
2018-09-13T20:38:07.700Z,4.00
2018-09-13T20:40:37.440Z,4.30
2018-09-13T20:43:07.477Z,4.30
2018-09-13T20:45:37.357Z,3.47
2018-09-13T20:48:07.097Z,3.93
2018-09-13T20:50:37.000Z,3.93
2018-09-13T20:53:06.725Z,4.00
2018-09-13T20:55:36.704Z,3.33
2018-09-13T20:58:06.530Z,3.47
2018-09-13T21:00:36.325Z,3.17
2018-09-13T21:03:06.079Z,3.53
2018-09-13T21:05:36.379Z,3.20
2018-09-13T21:08:06.175Z,3.40
2018-09-13T21:10:35.892Z,2.90
2018-09-13T21:13:05.612Z,2.90
2018-09-13T21:15:35.393Z,2.77
2018-09-13T21:18:05.151Z,3.40
2018-09-13T21:20:34.881Z,3.50
2018-09-13T21:23:04.726Z,3.60
2018-09-13T21:25:34.540Z,3.83
2018-09-13T21:28:04.361Z,3.83
2018-09-13T21:30:34.253Z,3.37
2018-09-13T21:33:03.995Z,3.67
2018-09-13T21:35:33.770Z,3.83
2018-09-13T21:38:03.491Z,3.43
2018-09-13T21:40:33.613Z,3.00
2018-09-13T21:43:03.307Z,3.33
2018-09-13T21:45:33.087Z,3.27
2018-09-13T21:48:02.825Z,3.47
2018-09-13T21:50:32.623Z,3.23
2018-09-13T21:53:02.408Z,3.47
2018-09-13T21:55:32.213Z,3.10
2018-09-13T21:58:01.997Z,3.50
2018-09-13T22:00:31.866Z,3.70
2018-09-13T22:03:01.744Z,2.80
2018-09-13T22:05:31.574Z,3.23
2018-09-13T22:08:01.282Z,2.83
2018-09-13T22:10:31.046Z,3.30
2018-09-13T22:13:00.775Z,3.13
2018-09-13T22:15:30.748Z,2.67
2018-09-13T22:18:00.477Z,2.83
2018-09-13T22:20:30.775Z,3.20
2018-09-13T22:23:00.518Z,2.90
2018-09-13T22:25:30.396Z,3.40
2018-09-13T22:28:00.273Z,3.40
2018-09-13T22:30:30.022Z,2.80
2018-09-13T22:32:59.795Z,3.00
2018-09-13T22:35:29.597Z,2.83
2018-09-13T22:37:59.371Z,3.23
2018-09-13T22:40:29.213Z,3.20
2018-09-13T22:42:59.252Z,3.67
2018-09-13T22:45:29.364Z,3.60
2018-09-13T22:47:59.103Z,3.50
2018-09-13T22:50:28.939Z,3.00
2018-09-13T22:52:58.689Z,3.20
2018-09-13T22:55:28.472Z,3.50
2018-09-13T22:57:58.168Z,3.20
2018-09-13T23:00:28.751Z,3.30
2018-09-13T23:02:58.521Z,3.83
2018-09-13T23:05:28.521Z,3.10
2018-09-13T23:07:58.320Z,3.23
2018-09-13T23:10:28.140Z,2.83
2018-09-13T23:12:57.952Z,2.93
2018-09-13T23:15:28.373Z,3.00
2018-09-13T23:17:58.237Z,3.03
2018-09-13T23:20:28.499Z,2.90
2018-09-13T23:22:58.570Z,3.13
2018-09-13T23:25:28.761Z,2.60
2018-09-13T23:27:58.934Z,2.40
2018-09-13T23:30:28.676Z,2.87
2018-09-13T23:32:58.470Z,3.20
2018-09-13T23:35:28.303Z,3.00
2018-09-13T23:37:58.079Z,3.10
2018-09-13T23:40:27.963Z,3.23
2018-09-13T23:42:57.785Z,3.07
2018-09-13T23:45:28.353Z,3.30
2018-09-13T23:47:59.106Z,3.07
2018-09-13T23:50:28.982Z,2.93
2018-09-13T23:52:58.830Z,3.20
2018-09-13T23:55:28.584Z,3.03
2018-09-13T23:57:58.344Z,2.90
